sensor_id;sensor_type;location;lat;lon;timestamp;P1;P2;P0
69222;PMS7003;56514;51.816;-0.026;2022-07-21T00:00:11;3.75;3.75;3.00
69222;PMS7003;56514;51.816;-0.026;2022-07-21T00:02:57;4.50;4.50;4.00
69222;PMS7003;56514;51.816;-0.026;2022-07-21T00:05:42;3.25;3.25;3.00
69222;PMS7003;56514;51.816;-0.026;2022-07-21T00:08:28;3.00;3.00;3.00
69222;PMS7003;56514;51.816;-0.026;2022-07-21T00:11:13;5.25;5.25;3.25
69222;PMS7003;56514;51.816;-0.026;2022-07-21T00:13:58;4.00;4.00;3.00
69222;PMS7003;56514;51.816;-0.026;2022-07-21T00:16:43;3.50;3.50;2.75
69222;PMS7003;56514;51.816;-0.026;2022-07-21T00:19:28;3.75;3.75;3.00
69222;PMS7003;56514;51.816;-0.026;2022-07-21T00:22:13;3.50;3.50;3.25
69222;PMS7003;56514;51.816;-0.026;2022-07-21T00:24:59;3.50;3.50;3.00
69222;PMS7003;56514;51.816;-0.026;2022-07-21T00:27:44;3.50;3.50;3.00
69222;PMS7003;56514;51.816;-0.026;2022-07-21T00:30:29;4.00;4.00;3.00
69222;PMS7003;56514;51.816;-0.026;2022-07-21T00:33:14;3.00;3.00;3.00
69222;PMS7003;56514;51.816;-0.026;2022-07-21T00:35:59;3.25;3.25;3.00
69222;PMS7003;56514;51.816;-0.026;2022-07-21T00:38:44;4.25;4.25;3.50
69222;PMS7003;56514;51.816;-0.026;2022-07-21T00:41:28;3.75;3.75;3.00
69222;PMS7003;56514;51.816;-0.026;2022-07-21T00:44:23;4.00;4.00;4.00
69222;PMS7003;56514;51.816;-0.026;2022-07-21T00:47:10;3.50;3.50;3.25
69222;PMS7003;56514;51.816;-0.026;2022-07-21T00:49:55;3.25;3.25;3.00
69222;PMS7003;56514;51.816;-0.026;2022-07-21T00:52:41;4.50;4.50;3.75
69222;PMS7003;56514;51.816;-0.026;2022-07-21T00:55:26;4.00;4.00;3.25
69222;PMS7003;56514;51.816;-0.026;2022-07-21T00:58:11;5.50;5.50;4.00
69222;PMS7003;56514;51.816;-0.026;2022-07-21T01:00:56;4.00;4.00;3.25
69222;PMS7003;56514;51.816;-0.026;2022-07-21T01:03:41;4.50;4.50;4.00
69222;PMS7003;56514;51.816;-0.026;2022-07-21T01:06:26;5.00;5.00;3.50
69222;PMS7003;56514;51.816;-0.026;2022-07-21T01:09:11;4.00;4.00;3.00
69222;PMS7003;56514;51.816;-0.026;2022-07-21T01:11:56;3.25;3.25;3.00
69222;PMS7003;56514;51.816;-0.026;2022-07-21T01:14:42;4.00;4.00;3.50
69222;PMS7003;56514;51.816;-0.026;2022-07-21T01:17:26;2.75;2.75;2.00
69222;PMS7003;56514;51.816;-0.026;2022-07-21T01:20:12;4.00;4.00;3.00
69222;PMS7003;56514;51.816;-0.026;2022-07-21T01:22:59;4.00;4.00;3.00
69222;PMS7003;56514;51.816;-0.026;2022-07-21T01:25:47;3.25;3.25;3.00
69222;PMS7003;56514;51.816;-0.026;2022-07-21T01:28:36;4.00;4.00;3.25
69222;PMS7003;56514;51.816;-0.026;2022-07-21T01:31:20;4.50;4.50;3.75
69222;PMS7003;56514;51.816;-0.026;2022-07-21T01:34:06;6.00;6.00;4.00
69222;PMS7003;56514;51.816;-0.026;2022-07-21T01:36:51;2.50;2.50;2.50
69222;PMS7003;56514;51.816;-0.026;2022-07-21T01:39:36;2.25;2.25;1.75
69222;PMS7003;56514;51.816;-0.026;2022-07-21T01:42:39;4.00;4.00;3.50
69222;PMS7003;56514;51.816;-0.026;2022-07-21T01:45:24;4.25;3.25;3.00
69222;PMS7003;56514;51.816;-0.026;2022-07-21T01:48:09;4.00;4.00;3.50
69222;PMS7003;56514;51.816;-0.026;2022-07-21T01:50:54;3.00;3.00;3.00
69222;PMS7003;56514;51.816;-0.026;2022-07-21T01:53:39;3.50;3.50;2.75
69222;PMS7003;56514;51.816;-0.026;2022-07-21T01:56:25;6.25;6.25;4.50
69222;PMS7003;56514;51.816;-0.026;2022-07-21T01:59:10;4.00;4.00;3.00
69222;PMS7003;56514;51.816;-0.026;2022-07-21T02:01:55;2.75;2.75;2.25
69222;PMS7003;56514;51.816;-0.026;2022-07-21T02:04:40;4.00;4.00;3.00
69222;PMS7003;56514;51.816;-0.026;2022-07-21T02:07:24;2.67;2.67;2.33
69222;PMS7003;56514;51.816;-0.026;2022-07-21T02:10:09;3.00;3.00;3.00
69222;PMS7003;56514;51.816;-0.026;2022-07-21T02:12:54;5.50;5.50;3.75
69222;PMS7003;56514;51.816;-0.026;2022-07-21T02:15:39;4.25;4.25;3.00
69222;PMS7003;56514;51.816;-0.026;2022-07-21T02:18:23;1.50;1.50;1.00
69222;PMS7003;56514;51.816;-0.026;2022-07-21T02:21:08;2.50;2.50;2.25
69222;PMS7003;56514;51.816;-0.026;2022-07-21T02:23:53;3.00;3.00;3.00
69222;PMS7003;56514;51.816;-0.026;2022-07-21T02:26:37;2.50;2.50;2.50
69222;PMS7003;56514;51.816;-0.026;2022-07-21T02:29:22;3.00;3.00;2.75
69222;PMS7003;56514;51.816;-0.026;2022-07-21T02:32:07;3.00;3.00;1.00
69222;PMS7003;56514;51.816;-0.026;2022-07-21T02:34:52;2.00;2.00;2.00
69222;PMS7003;56514;51.816;-0.026;2022-07-21T02:37:37;4.75;4.75;3.25
69222;PMS7003;56514;51.816;-0.026;2022-07-21T02:40:23;4.00;4.00;3.00
69222;PMS7003;56514;51.816;-0.026;2022-07-21T02:43:08;2.00;2.00;2.00
69222;PMS7003;56514;51.816;-0.026;2022-07-21T02:45:53;2.75;2.75;2.50
69222;PMS7003;56514;51.816;-0.026;2022-07-21T02:48:39;3.50;3.50;3.00
69222;PMS7003;56514;51.816;-0.026;2022-07-21T02:51:23;4.25;4.25;2.50
69222;PMS7003;56514;51.816;-0.026;2022-07-21T02:54:08;2.00;2.00;2.00
69222;PMS7003;56514;51.816;-0.026;2022-07-21T02:56:53;1.50;1.50;1.50
69222;PMS7003;56514;51.816;-0.026;2022-07-21T02:59:38;2.00;2.00;2.00
69222;PMS7003;56514;51.816;-0.026;2022-07-21T03:02:22;2.75;2.75;2.00
69222;PMS7003;56514;51.816;-0.026;2022-07-21T03:05:07;2.50;2.50;2.00
69222;PMS7003;56514;51.816;-0.026;2022-07-21T03:07:52;3.00;3.00;3.00
69222;PMS7003;56514;51.816;-0.026;2022-07-21T03:10:37;2.50;2.50;2.00
69222;PMS7003;56514;51.816;-0.026;2022-07-21T03:13:23;3.00;3.00;3.00
69222;PMS7003;56514;51.816;-0.026;2022-07-21T03:16:08;2.00;2.00;2.00
69222;PMS7003;56514;51.816;-0.026;2022-07-21T03:18:53;3.00;3.00;2.00
69222;PMS7003;56514;51.816;-0.026;2022-07-21T03:21:39;2.75;2.75;2.25
69222;PMS7003;56514;51.816;-0.026;2022-07-21T03:24:24;3.00;3.00;2.00
69222;PMS7003;56514;51.816;-0.026;2022-07-21T03:27:09;2.00;2.00;2.00
69222;PMS7003;56514;51.816;-0.026;2022-07-21T03:29:53;3.50;3.50;3.25
69222;PMS7003;56514;51.816;-0.026;2022-07-21T03:32:38;2.75;2.75;2.75
69222;PMS7003;56514;51.816;-0.026;2022-07-21T03:35:23;2.75;2.75;2.75
69222;PMS7003;56514;51.816;-0.026;2022-07-21T03:38:08;4.00;4.00;3.50
69222;PMS7003;56514;51.816;-0.026;2022-07-21T03:40:53;2.00;2.00;2.00
69222;PMS7003;56514;51.816;-0.026;2022-07-21T03:43:38;3.00;3.00;2.50
69222;PMS7003;56514;51.816;-0.026;2022-07-21T03:46:22;3.00;3.00;3.00
69222;PMS7003;56514;51.816;-0.026;2022-07-21T03:49:07;2.25;2.25;2.00
69222;PMS7003;56514;51.816;-0.026;2022-07-21T03:51:52;3.50;3.50;2.25
69222;PMS7003;56514;51.816;-0.026;2022-07-21T03:54:36;3.00;3.00;2.75
69222;PMS7003;56514;51.816;-0.026;2022-07-21T03:57:21;3.00;3.00;2.00
69222;PMS7003;56514;51.816;-0.026;2022-07-21T04:00:07;3.00;3.00;2.25
69222;PMS7003;56514;51.816;-0.026;2022-07-21T04:02:55;3.00;3.00;2.00
69222;PMS7003;56514;51.816;-0.026;2022-07-21T04:05:41;2.50;2.50;2.00
69222;PMS7003;56514;51.816;-0.026;2022-07-21T04:08:27;2.50;2.50;2.00
69222;PMS7003;56514;51.816;-0.026;2022-07-21T04:11:12;2.50;2.50;2.00
69222;PMS7003;56514;51.816;-0.026;2022-07-21T04:13:58;2.00;2.00;2.00
69222;PMS7003;56514;51.816;-0.026;2022-07-21T04:16:42;3.00;3.00;2.00
69222;PMS7003;56514;51.816;-0.026;2022-07-21T04:19:27;0.00;0.00;0.00
69222;PMS7003;56514;51.816;-0.026;2022-07-21T04:22:12;2.75;2.75;2.00
69222;PMS7003;56514;51.816;-0.026;2022-07-21T04:24:57;2.25;2.25;1.75
69222;PMS7003;56514;51.816;-0.026;2022-07-21T04:27:42;3.00;3.00;3.00
69222;PMS7003;56514;51.816;-0.026;2022-07-21T04:30:27;2.50;2.50;1.50
69222;PMS7003;56514;51.816;-0.026;2022-07-21T04:33:12;2.00;2.00;2.00
69222;PMS7003;56514;51.816;-0.026;2022-07-21T04:35:57;2.75;2.75;2.00
69222;PMS7003;56514;51.816;-0.026;2022-07-21T04:38:42;2.25;2.25;2.00
69222;PMS7003;56514;51.816;-0.026;2022-07-21T04:41:27;2.50;2.50;2.25
69222;PMS7003;56514;51.816;-0.026;2022-07-21T04:44:12;4.50;4.50;3.00
69222;PMS7003;56514;51.816;-0.026;2022-07-21T04:46:56;3.00;3.00;2.00
69222;PMS7003;56514;51.816;-0.026;2022-07-21T04:49:42;2.75;2.75;2.00
69222;PMS7003;56514;51.816;-0.026;2022-07-21T04:52:27;2.00;2.00;1.75
69222;PMS7003;56514;51.816;-0.026;2022-07-21T04:55:12;2.25;2.25;2.00
69222;PMS7003;56514;51.816;-0.026;2022-07-21T04:57:57;2.25;2.25;2.00
69222;PMS7003;56514;51.816;-0.026;2022-07-21T05:00:43;3.00;3.00;2.25
69222;PMS7003;56514;51.816;-0.026;2022-07-21T05:03:28;1.00;1.00;1.00
69222;PMS7003;56514;51.816;-0.026;2022-07-21T05:06:13;2.00;2.00;1.25
69222;PMS7003;56514;51.816;-0.026;2022-07-21T05:08:58;2.75;2.75;2.00
69222;PMS7003;56514;51.816;-0.026;2022-07-21T05:11:43;2.75;2.75;2.00
69222;PMS7003;56514;51.816;-0.026;2022-07-21T05:14:28;2.50;2.50;2.25
69222;PMS7003;56514;51.816;-0.026;2022-07-21T05:17:12;2.50;2.50;2.00
69222;PMS7003;56514;51.816;-0.026;2022-07-21T05:19:58;1.75;1.75;1.75
69222;PMS7003;56514;51.816;-0.026;2022-07-21T05:22:44;2.00;2.00;2.00
69222;PMS7003;56514;51.816;-0.026;2022-07-21T05:25:28;2.00;2.00;2.00
69222;PMS7003;56514;51.816;-0.026;2022-07-21T05:28:16;1.00;1.00;1.00
69222;PMS7003;56514;51.816;-0.026;2022-07-21T05:31:01;2.00;2.00;2.00
69222;PMS7003;56514;51.816;-0.026;2022-07-21T05:33:46;1.00;1.00;1.00
69222;PMS7003;56514;51.816;-0.026;2022-07-21T05:36:31;1.00;1.00;1.00
69222;PMS7003;56514;51.816;-0.026;2022-07-21T05:39:15;2.00;2.00;2.00
69222;PMS7003;56514;51.816;-0.026;2022-07-21T05:42:00;2.00;2.00;2.00
69222;PMS7003;56514;51.816;-0.026;2022-07-21T05:44:45;3.00;3.00;2.00
69222;PMS7003;56514;51.816;-0.026;2022-07-21T05:47:30;2.25;2.25;2.00
69222;PMS7003;56514;51.816;-0.026;2022-07-21T05:50:15;3.00;3.00;2.00
69222;PMS7003;56514;51.816;-0.026;2022-07-21T05:53:00;2.00;2.00;1.50
69222;PMS7003;56514;51.816;-0.026;2022-07-21T05:55:45;2.50;2.50;2.00
69222;PMS7003;56514;51.816;-0.026;2022-07-21T05:58:30;2.00;2.00;1.75
69222;PMS7003;56514;51.816;-0.026;2022-07-21T06:01:20;1.75;1.75;1.50
69222;PMS7003;56514;51.816;-0.026;2022-07-21T06:04:04;2.00;2.00;1.50
69222;PMS7003;56514;51.816;-0.026;2022-07-21T06:06:49;2.25;2.25;2.00
69222;PMS7003;56514;51.816;-0.026;2022-07-21T06:09:35;2.75;2.75;2.00
69222;PMS7003;56514;51.816;-0.026;2022-07-21T06:12:20;2.50;2.50;1.75
69222;PMS7003;56514;51.816;-0.026;2022-07-21T06:15:05;2.00;2.00;2.00
69222;PMS7003;56514;51.816;-0.026;2022-07-21T06:17:51;3.75;3.75;2.00
69222;PMS7003;56514;51.816;-0.026;2022-07-21T06:20:35;1.75;1.75;1.25
69222;PMS7003;56514;51.816;-0.026;2022-07-21T06:23:20;3.00;3.00;2.75
69222;PMS7003;56514;51.816;-0.026;2022-07-21T06:26:06;2.25;2.25;2.25
69222;PMS7003;56514;51.816;-0.026;2022-07-21T06:28:51;3.00;3.00;2.00
69222;PMS7003;56514;51.816;-0.026;2022-07-21T06:31:36;1.25;1.25;1.25
69222;PMS7003;56514;51.816;-0.026;2022-07-21T06:34:21;2.00;2.00;1.00
69222;PMS7003;56514;51.816;-0.026;2022-07-21T06:37:06;3.25;3.25;2.25
69222;PMS7003;56514;51.816;-0.026;2022-07-21T06:39:51;2.00;2.00;2.00
69222;PMS7003;56514;51.816;-0.026;2022-07-21T06:42:35;2.00;2.00;1.00
69222;PMS7003;56514;51.816;-0.026;2022-07-21T06:45:22;2.50;2.50;2.25
69222;PMS7003;56514;51.816;-0.026;2022-07-21T06:48:08;2.00;2.00;2.00
69222;PMS7003;56514;51.816;-0.026;2022-07-21T06:50:53;3.00;3.00;3.00
69222;PMS7003;56514;51.816;-0.026;2022-07-21T06:53:39;2.00;2.00;2.00
69222;PMS7003;56514;51.816;-0.026;2022-07-21T06:56:26;2.50;2.50;2.00
69222;PMS7003;56514;51.816;-0.026;2022-07-21T06:59:11;2.50;2.50;2.25
69222;PMS7003;56514;51.816;-0.026;2022-07-21T07:01:56;2.50;2.50;2.50
69222;PMS7003;56514;51.816;-0.026;2022-07-21T07:04:41;4.25;4.00;4.00
69222;PMS7003;56514;51.816;-0.026;2022-07-21T07:07:27;2.00;2.00;2.00
69222;PMS7003;56514;51.816;-0.026;2022-07-21T07:10:14;2.75;2.75;2.00
69222;PMS7003;56514;51.816;-0.026;2022-07-21T07:12:58;4.00;4.00;3.00
69222;PMS7003;56514;51.816;-0.026;2022-07-21T07:15:44;3.50;3.50;3.25
69222;PMS7003;56514;51.816;-0.026;2022-07-21T07:18:29;3.25;3.25;3.00
69222;PMS7003;56514;51.816;-0.026;2022-07-21T07:21:14;3.00;3.00;2.50
69222;PMS7003;56514;51.816;-0.026;2022-07-21T07:23:59;2.75;2.75;2.50
69222;PMS7003;56514;51.816;-0.026;2022-07-21T07:26:43;3.00;3.00;2.00
69222;PMS7003;56514;51.816;-0.026;2022-07-21T07:29:29;3.00;3.00;2.25
69222;PMS7003;56514;51.816;-0.026;2022-07-21T07:32:15;4.00;4.00;3.00
69222;PMS7003;56514;51.816;-0.026;2022-07-21T07:35:00;2.75;2.75;2.25
69222;PMS7003;56514;51.816;-0.026;2022-07-21T07:37:45;4.00;4.00;3.00
69222;PMS7003;56514;51.816;-0.026;2022-07-21T07:40:31;5.00;5.00;4.00
69222;PMS7003;56514;51.816;-0.026;2022-07-21T07:43:16;5.25;5.25;4.25
69222;PMS7003;56514;51.816;-0.026;2022-07-21T07:46:01;5.25;5.25;4.50
69222;PMS7003;56514;51.816;-0.026;2022-07-21T07:48:47;5.00;5.00;4.00
69222;PMS7003;56514;51.816;-0.026;2022-07-21T07:51:32;5.75;5.75;5.00
69222;PMS7003;56514;51.816;-0.026;2022-07-21T07:54:18;5.00;5.00;5.00
69222;PMS7003;56514;51.816;-0.026;2022-07-21T07:57:02;3.25;3.25;2.50
69222;PMS7003;56514;51.816;-0.026;2022-07-21T07:59:49;3.50;3.50;2.75
69222;PMS7003;56514;51.816;-0.026;2022-07-21T08:02:38;4.25;4.25;3.25
69222;PMS7003;56514;51.816;-0.026;2022-07-21T08:05:24;2.00;2.00;2.00
69222;PMS7003;56514;51.816;-0.026;2022-07-21T08:08:14;4.75;4.75;3.50
69222;PMS7003;56514;51.816;-0.026;2022-07-21T08:11:00;3.25;3.25;3.00
69222;PMS7003;56514;51.816;-0.026;2022-07-21T08:13:45;4.50;4.50;3.75
69222;PMS7003;56514;51.816;-0.026;2022-07-21T08:16:30;3.50;3.50;3.00
69222;PMS7003;56514;51.816;-0.026;2022-07-21T08:19:15;2.00;2.00;1.75
69222;PMS7003;56514;51.816;-0.026;2022-07-21T08:22:00;4.25;4.25;3.00
69222;PMS7003;56514;51.816;-0.026;2022-07-21T08:24:45;3.50;3.50;3.25
69222;PMS7003;56514;51.816;-0.026;2022-07-21T08:27:30;3.75;3.75;3.75
69222;PMS7003;56514;51.816;-0.026;2022-07-21T08:30:15;4.50;4.50;3.50
69222;PMS7003;56514;51.816;-0.026;2022-07-21T08:33:00;5.50;5.50;4.00
69222;PMS7003;56514;51.816;-0.026;2022-07-21T08:35:47;3.75;3.75;3.25
69222;PMS7003;56514;51.816;-0.026;2022-07-21T08:38:32;4.25;4.25;3.50
69222;PMS7003;56514;51.816;-0.026;2022-07-21T08:41:17;5.00;5.00;4.00
69222;PMS7003;56514;51.816;-0.026;2022-07-21T08:44:02;4.75;4.75;4.00
69222;PMS7003;56514;51.816;-0.026;2022-07-21T08:46:49;5.00;5.00;4.50
69222;PMS7003;56514;51.816;-0.026;2022-07-21T08:49:35;9.75;9.75;7.00
69222;PMS7003;56514;51.816;-0.026;2022-07-21T08:52:21;9.50;9.50;6.50
69222;PMS7003;56514;51.816;-0.026;2022-07-21T08:55:06;9.25;9.25;7.00
69222;PMS7003;56514;51.816;-0.026;2022-07-21T08:57:51;10.25;10.25;10.00
69222;PMS7003;56514;51.816;-0.026;2022-07-21T09:00:36;9.50;9.50;8.50
69222;PMS7003;56514;51.816;-0.026;2022-07-21T09:03:24;8.75;8.75;7.25
69222;PMS7003;56514;51.816;-0.026;2022-07-21T09:06:12;8.50;8.50;6.75
69222;PMS7003;56514;51.816;-0.026;2022-07-21T09:09:00;9.50;9.50;7.25
69222;PMS7003;56514;51.816;-0.026;2022-07-21T09:12:10;12.00;12.00;10.00
69222;PMS7003;56514;51.816;-0.026;2022-07-21T09:15:14;7.00;7.00;6.00
69222;PMS7003;56514;51.816;-0.026;2022-07-21T09:18:11;11.00;11.00;10.00
69222;PMS7003;56514;51.816;-0.026;2022-07-21T09:20:57;13.00;13.00;11.75
69222;PMS7003;56514;51.816;-0.026;2022-07-21T09:23:47;11.00;11.00;10.00
69222;PMS7003;56514;51.816;-0.026;2022-07-21T09:26:56;13.25;13.25;12.00
69222;PMS7003;56514;51.816;-0.026;2022-07-21T09:30:04;12.75;12.75;11.50
69222;PMS7003;56514;51.816;-0.026;2022-07-21T09:33:23;12.75;12.75;11.00
69222;PMS7003;56514;51.816;-0.026;2022-07-21T09:36:36;12.00;12.00;10.00
69222;PMS7003;56514;51.816;-0.026;2022-07-21T09:39:49;12.75;12.75;11.75
69222;PMS7003;56514;51.816;-0.026;2022-07-21T09:43:01;14.75;14.75;12.25
69222;PMS7003;56514;51.816;-0.026;2022-07-21T09:46:12;11.75;11.75;10.00
69222;PMS7003;56514;51.816;-0.026;2022-07-21T09:49:30;12.25;12.25;10.50
69222;PMS7003;56514;51.816;-0.026;2022-07-21T09:52:41;10.50;10.50;9.00
69222;PMS7003;56514;51.816;-0.026;2022-07-21T09:55:53;11.00;11.00;9.75
69222;PMS7003;56514;51.816;-0.026;2022-07-21T09:59:03;9.25;9.25;8.25
69222;PMS7003;56514;51.816;-0.026;2022-07-21T10:02:15;9.00;9.00;8.00
69222;PMS7003;56514;51.816;-0.026;2022-07-21T10:05:28;7.25;7.25;6.75
69222;PMS7003;56514;51.816;-0.026;2022-07-21T10:08:39;7.00;7.00;6.00
69222;PMS7003;56514;51.816;-0.026;2022-07-21T10:11:52;6.00;6.00;5.00
69222;PMS7003;56514;51.816;-0.026;2022-07-21T10:15:03;5.25;5.25;5.00
69222;PMS7003;56514;51.816;-0.026;2022-07-21T10:18:13;8.75;8.75;7.00
69222;PMS7003;56514;51.816;-0.026;2022-07-21T10:25:06;5.00;5.00;5.00
69222;PMS7003;56514;51.816;-0.026;2022-07-21T10:28:17;5.25;5.25;4.25
69222;PMS7003;56514;51.816;-0.026;2022-07-21T10:31:36;6.00;6.00;4.50
69222;PMS7003;56514;51.816;-0.026;2022-07-21T10:34:51;6.50;6.50;5.50
69222;PMS7003;56514;51.816;-0.026;2022-07-21T10:45:55;5.00;5.00;4.75
69222;PMS7003;56514;51.816;-0.026;2022-07-21T10:51:26;5.25;5.25;4.75
69222;PMS7003;56514;51.816;-0.026;2022-07-21T10:54:21;5.00;5.00;4.75
69222;PMS7003;56514;51.816;-0.026;2022-07-21T11:00:25;5.75;5.75;4.75
69222;PMS7003;56514;51.816;-0.026;2022-07-21T11:06:18;5.00;5.00;5.00
69222;PMS7003;56514;51.816;-0.026;2022-07-21T11:09:09;7.00;7.00;6.00
69222;PMS7003;56514;51.816;-0.026;2022-07-21T11:14:42;5.75;5.75;5.25
69222;PMS7003;56514;51.816;-0.026;2022-07-21T11:17:30;5.50;5.50;5.00
69222;PMS7003;56514;51.816;-0.026;2022-07-21T11:20:16;5.00;5.00;5.00
69222;PMS7003;56514;51.816;-0.026;2022-07-21T11:23:01;5.25;5.25;5.00
69222;PMS7003;56514;51.816;-0.026;2022-07-21T11:25:47;6.25;6.25;4.75
69222;PMS7003;56514;51.816;-0.026;2022-07-21T11:28:33;4.50;4.50;4.00
69222;PMS7003;56514;51.816;-0.026;2022-07-21T11:31:19;5.00;5.00;4.00
69222;PMS7003;56514;51.816;-0.026;2022-07-21T11:34:06;5.00;5.00;4.25
69222;PMS7003;56514;51.816;-0.026;2022-07-21T11:37:11;3.75;3.75;3.25
69222;PMS7003;56514;51.816;-0.026;2022-07-21T11:40:20;3.75;3.75;3.75
69222;PMS7003;56514;51.816;-0.026;2022-07-21T11:43:43;3.25;3.25;3.00
69222;PMS7003;56514;51.816;-0.026;2022-07-21T11:46:52;3.75;3.75;3.50
69222;PMS7003;56514;51.816;-0.026;2022-07-21T11:49:39;4.00;4.00;4.00
69222;PMS7003;56514;51.816;-0.026;2022-07-21T11:52:29;4.50;4.50;4.00
69222;PMS7003;56514;51.816;-0.026;2022-07-21T11:55:15;4.50;4.50;4.00
69222;PMS7003;56514;51.816;-0.026;2022-07-21T11:58:01;3.00;3.00;2.75
69222;PMS7003;56514;51.816;-0.026;2022-07-21T12:00:46;2.75;2.75;2.00
69222;PMS7003;56514;51.816;-0.026;2022-07-21T12:03:32;3.00;3.00;2.75
69222;PMS7003;56514;51.816;-0.026;2022-07-21T12:06:17;2.50;2.50;2.25
69222;PMS7003;56514;51.816;-0.026;2022-07-21T12:09:03;2.00;2.00;1.75
69222;PMS7003;56514;51.816;-0.026;2022-07-21T12:11:48;2.00;2.00;2.00
69222;PMS7003;56514;51.816;-0.026;2022-07-21T12:17:36;1.25;1.25;1.00
69222;PMS7003;56514;51.816;-0.026;2022-07-21T12:20:32;2.00;2.00;2.00
69222;PMS7003;56514;51.816;-0.026;2022-07-21T12:23:21;1.50;1.50;1.25
69222;PMS7003;56514;51.816;-0.026;2022-07-21T12:26:06;1.00;1.00;1.00
69222;PMS7003;56514;51.816;-0.026;2022-07-21T12:29:04;1.00;1.00;1.00
69222;PMS7003;56514;51.816;-0.026;2022-07-21T12:31:49;1.00;1.00;1.00
69222;PMS7003;56514;51.816;-0.026;2022-07-21T12:34:47;1.25;1.25;1.25
69222;PMS7003;56514;51.816;-0.026;2022-07-21T12:40:41;0.75;0.75;0.75
69222;PMS7003;56514;51.816;-0.026;2022-07-21T12:43:30;1.00;1.00;1.00
69222;PMS7003;56514;51.816;-0.026;2022-07-21T12:46:16;1.00;1.00;0.25
69222;PMS7003;56514;51.816;-0.026;2022-07-21T12:49:07;1.75;1.75;1.75
69222;PMS7003;56514;51.816;-0.026;2022-07-21T12:51:56;1.25;1.25;1.00
69222;PMS7003;56514;51.816;-0.026;2022-07-21T12:54:41;2.00;2.00;2.00
69222;PMS7003;56514;51.816;-0.026;2022-07-21T12:57:27;1.00;1.00;1.00
69222;PMS7003;56514;51.816;-0.026;2022-07-21T13:00:15;1.00;1.00;1.00
69222;PMS7003;56514;51.816;-0.026;2022-07-21T13:03:01;1.75;1.75;1.25
69222;PMS7003;56514;51.816;-0.026;2022-07-21T13:05:46;1.00;1.00;1.00
69222;PMS7003;56514;51.816;-0.026;2022-07-21T13:08:31;1.25;1.25;1.00
69222;PMS7003;56514;51.816;-0.026;2022-07-21T13:11:18;1.25;1.25;1.00
69222;PMS7003;56514;51.816;-0.026;2022-07-21T13:14:05;1.50;1.50;1.50
69222;PMS7003;56514;51.816;-0.026;2022-07-21T13:16:50;1.25;1.25;1.00
69222;PMS7003;56514;51.816;-0.026;2022-07-21T13:19:37;1.00;1.00;1.00
69222;PMS7003;56514;51.816;-0.026;2022-07-21T13:22:22;1.00;1.00;1.00
69222;PMS7003;56514;51.816;-0.026;2022-07-21T13:25:07;2.00;2.00;1.00
69222;PMS7003;56514;51.816;-0.026;2022-07-21T13:27:54;2.00;2.00;1.75
69222;PMS7003;56514;51.816;-0.026;2022-07-21T13:30:39;1.75;1.75;1.00
69222;PMS7003;56514;51.816;-0.026;2022-07-21T13:33:24;1.75;1.75;1.00
69222;PMS7003;56514;51.816;-0.026;2022-07-21T13:36:09;2.00;2.00;1.00
69222;PMS7003;56514;51.816;-0.026;2022-07-21T13:38:54;0.00;0.00;0.00
69222;PMS7003;56514;51.816;-0.026;2022-07-21T13:41:40;0.75;0.75;0.75
69222;PMS7003;56514;51.816;-0.026;2022-07-21T13:44:25;0.75;0.75;0.50
69222;PMS7003;56514;51.816;-0.026;2022-07-21T13:47:10;2.00;2.00;2.00
69222;PMS7003;56514;51.816;-0.026;2022-07-21T13:49:55;1.00;1.00;1.00
69222;PMS7003;56514;51.816;-0.026;2022-07-21T13:52:39;0.25;0.25;0.25
69222;PMS7003;56514;51.816;-0.026;2022-07-21T13:55:25;0.00;0.00;0.00
69222;PMS7003;56514;51.816;-0.026;2022-07-21T13:58:10;0.00;0.00;0.00
69222;PMS7003;56514;51.816;-0.026;2022-07-21T14:00:56;1.00;1.00;0.25
69222;PMS7003;56514;51.816;-0.026;2022-07-21T14:03:41;0.00;0.00;0.00
69222;PMS7003;56514;51.816;-0.026;2022-07-21T14:06:27;0.00;0.00;0.00
69222;PMS7003;56514;51.816;-0.026;2022-07-21T14:09:12;0.00;0.00;0.00
69222;PMS7003;56514;51.816;-0.026;2022-07-21T14:11:57;0.00;0.00;0.00
69222;PMS7003;56514;51.816;-0.026;2022-07-21T14:14:43;0.00;0.00;0.00
69222;PMS7003;56514;51.816;-0.026;2022-07-21T14:17:31;0.00;0.00;0.00
69222;PMS7003;56514;51.816;-0.026;2022-07-21T14:20:15;0.00;0.00;0.00
69222;PMS7003;56514;51.816;-0.026;2022-07-21T14:23:01;0.00;0.00;0.00
69222;PMS7003;56514;51.816;-0.026;2022-07-21T14:25:46;0.00;0.00;0.00
69222;PMS7003;56514;51.816;-0.026;2022-07-21T14:28:34;0.00;0.00;0.00
69222;PMS7003;56514;51.816;-0.026;2022-07-21T14:31:19;0.00;0.00;0.00
69222;PMS7003;56514;51.816;-0.026;2022-07-21T14:34:05;0.00;0.00;0.00
69222;PMS7003;56514;51.816;-0.026;2022-07-21T14:36:51;0.25;0.25;0.25
69222;PMS7003;56514;51.816;-0.026;2022-07-21T14:39:36;0.00;0.00;0.00
69222;PMS7003;56514;51.816;-0.026;2022-07-21T14:42:20;0.00;0.00;0.00
69222;PMS7003;56514;51.816;-0.026;2022-07-21T14:45:08;0.00;0.00;0.00
69222;PMS7003;56514;51.816;-0.026;2022-07-21T14:47:54;0.00;0.00;0.00
69222;PMS7003;56514;51.816;-0.026;2022-07-21T14:50:40;0.00;0.00;0.00
69222;PMS7003;56514;51.816;-0.026;2022-07-21T14:53:25;0.00;0.00;0.00
69222;PMS7003;56514;51.816;-0.026;2022-07-21T14:56:10;0.00;0.00;0.00
69222;PMS7003;56514;51.816;-0.026;2022-07-21T14:58:55;0.00;0.00;0.00
69222;PMS7003;56514;51.816;-0.026;2022-07-21T15:01:40;1.75;1.75;1.25
69222;PMS7003;56514;51.816;-0.026;2022-07-21T15:04:28;0.00;0.00;0.00
69222;PMS7003;56514;51.816;-0.026;2022-07-21T15:07:13;0.00;0.00;0.00
69222;PMS7003;56514;51.816;-0.026;2022-07-21T15:10:06;0.00;0.00;0.00
69222;PMS7003;56514;51.816;-0.026;2022-07-21T15:12:51;0.00;0.00;0.00
69222;PMS7003;56514;51.816;-0.026;2022-07-21T15:15:36;0.00;0.00;0.00
69222;PMS7003;56514;51.816;-0.026;2022-07-21T15:18:22;0.00;0.00;0.00
69222;PMS7003;56514;51.816;-0.026;2022-07-21T15:21:07;0.00;0.00;0.00
69222;PMS7003;56514;51.816;-0.026;2022-07-21T15:23:52;0.00;0.00;0.00
69222;PMS7003;56514;51.816;-0.026;2022-07-21T15:26:37;0.00;0.00;0.00
69222;PMS7003;56514;51.816;-0.026;2022-07-21T15:29:23;0.00;0.00;0.00
69222;PMS7003;56514;51.816;-0.026;2022-07-21T15:32:08;0.25;0.25;0.00
69222;PMS7003;56514;51.816;-0.026;2022-07-21T15:34:52;0.00;0.00;0.00
69222;PMS7003;56514;51.816;-0.026;2022-07-21T15:37:38;0.50;0.50;0.00
69222;PMS7003;56514;51.816;-0.026;2022-07-21T15:40:22;0.00;0.00;0.00
69222;PMS7003;56514;51.816;-0.026;2022-07-21T15:43:07;0.00;0.00;0.00
69222;PMS7003;56514;51.816;-0.026;2022-07-21T15:45:53;0.75;0.75;0.50
69222;PMS7003;56514;51.816;-0.026;2022-07-21T15:48:37;0.00;0.00;0.00
69222;PMS7003;56514;51.816;-0.026;2022-07-21T15:51:22;0.00;0.00;0.00
69222;PMS7003;56514;51.816;-0.026;2022-07-21T15:54:08;0.75;0.75;0.00
69222;PMS7003;56514;51.816;-0.026;2022-07-21T15:56:52;0.00;0.00;0.00
69222;PMS7003;56514;51.816;-0.026;2022-07-21T15:59:37;0.00;0.00;0.00
69222;PMS7003;56514;51.816;-0.026;2022-07-21T16:02:22;0.00;0.00;0.00
69222;PMS7003;56514;51.816;-0.026;2022-07-21T16:05:12;0.00;0.00;0.00
69222;PMS7003;56514;51.816;-0.026;2022-07-21T16:07:59;0.50;0.50;0.50
69222;PMS7003;56514;51.816;-0.026;2022-07-21T16:10:44;0.00;0.00;0.00
69222;PMS7003;56514;51.816;-0.026;2022-07-21T16:13:29;0.00;0.00;0.00
69222;PMS7003;56514;51.816;-0.026;2022-07-21T16:16:15;0.00;0.00;0.00
69222;PMS7003;56514;51.816;-0.026;2022-07-21T16:19:03;0.00;0.00;0.00
69222;PMS7003;56514;51.816;-0.026;2022-07-21T16:21:48;0.50;0.50;0.25
69222;PMS7003;56514;51.816;-0.026;2022-07-21T16:24:34;0.00;0.00;0.00
69222;PMS7003;56514;51.816;-0.026;2022-07-21T16:27:19;1.00;1.00;0.75
69222;PMS7003;56514;51.816;-0.026;2022-07-21T16:30:05;0.00;0.00;0.00
69222;PMS7003;56514;51.816;-0.026;2022-07-21T16:32:51;0.00;0.00;0.00
69222;PMS7003;56514;51.816;-0.026;2022-07-21T16:35:36;0.00;0.00;0.00